sensor_id;sensor_type;location;lat;lon;timestamp;pressure;altitude;pressure_sealevel;temperature;humidity
36630;BME280;36256;42.154;23.002;2024-03-02T00:01:35;96651.19;;;10.64;100.00
36630;BME280;36256;42.154;23.002;2024-03-02T00:04:03;96641.84;;;10.58;100.00
36630;BME280;36256;42.154;23.002;2024-03-02T00:06:30;96651.50;;;10.66;100.00
36630;BME280;36256;42.154;23.002;2024-03-02T00:08:58;96629.84;;;10.49;100.00
36630;BME280;36256;42.154;23.002;2024-03-02T00:11:25;96642.78;;;10.55;100.00
36630;BME280;36256;42.154;23.002;2024-03-02T00:13:55;96640.91;;;10.52;100.00
36630;BME280;36256;42.154;23.002;2024-03-02T00:16:21;96641.53;;;10.56;100.00
36630;BME280;36256;42.154;23.002;2024-03-02T00:18:48;96649.63;;;10.54;100.00
36630;BME280;36256;42.154;23.002;2024-03-02T00:21:15;96645.28;;;10.53;100.00
36630;BME280;36256;42.154;23.002;2024-03-02T00:23:44;96645.13;;;10.48;100.00
36630;BME280;36256;42.154;23.002;2024-03-02T00:26:11;96646.88;;;10.45;100.00
36630;BME280;36256;42.154;23.002;2024-03-02T00:28:39;96641.09;;;10.49;100.00
36630;BME280;36256;42.154;23.002;2024-03-02T00:31:11;96650.28;;;10.40;100.00
36630;BME280;36256;42.154;23.002;2024-03-02T00:33:46;96645.31;;;10.26;100.00
36630;BME280;36256;42.154;23.002;2024-03-02T00:36:21;96639.53;;;10.30;100.00
36630;BME280;36256;42.154;23.002;2024-03-02T00:38:53;96649.66;;;10.36;100.00
36630;BME280;36256;42.154;23.002;2024-03-02T00:41:25;96645.28;;;10.44;100.00
36630;BME280;36256;42.154;23.002;2024-03-02T00:44:03;96637.97;;;10.47;100.00
36630;BME280;36256;42.154;23.002;2024-03-02T00:46:39;96640.00;;;10.37;100.00
36630;BME280;36256;42.154;23.002;2024-03-02T00:49:17;96636.25;;;10.31;100.00
36630;BME280;36256;42.154;23.002;2024-03-02T00:51:50;96638.63;;;10.33;100.00
36630;BME280;36256;42.154;23.002;2024-03-02T00:54:22;96640.78;;;10.38;100.00
36630;BME280;36256;42.154;23.002;2024-03-02T00:56:52;96648.72;;;10.39;100.00
36630;BME280;36256;42.154;23.002;2024-03-02T00:59:18;96639.06;;;10.40;100.00
36630;BME280;36256;42.154;23.002;2024-03-02T01:01:45;96634.56;;;10.43;100.00
36630;BME280;36256;42.154;23.002;2024-03-02T01:04:12;96640.59;;;10.41;100.00
36630;BME280;36256;42.154;23.002;2024-03-02T01:06:41;96634.38;;;10.37;100.00
36630;BME280;36256;42.154;23.002;2024-03-02T01:09:08;96623.16;;;10.37;100.00
36630;BME280;36256;42.154;23.002;2024-03-02T01:11:35;96625.06;;;10.22;100.00
36630;BME280;36256;42.154;23.002;2024-03-02T01:14:02;96623.00;;;10.04;100.00
36630;BME280;36256;42.154;23.002;2024-03-02T01:16:28;96619.09;;;9.84;100.00
36630;BME280;36256;42.154;23.002;2024-03-02T01:18:55;96614.41;;;9.81;100.00
36630;BME280;36256;42.154;23.002;2024-03-02T01:21:22;96620.03;;;9.81;100.00
36630;BME280;36256;42.154;23.002;2024-03-02T01:23:49;96602.91;;;9.88;100.00
36630;BME280;36256;42.154;23.002;2024-03-02T01:26:15;96606.97;;;9.96;100.00
36630;BME280;36256;42.154;23.002;2024-03-02T01:28:42;96599.47;;;10.02;100.00
36630;BME280;36256;42.154;23.002;2024-03-02T01:31:09;96593.41;;;10.03;100.00
36630;BME280;36256;42.154;23.002;2024-03-02T01:33:35;96587.03;;;10.03;100.00
36630;BME280;36256;42.154;23.002;2024-03-02T01:36:02;96588.59;;;10.04;100.00
36630;BME280;36256;42.154;23.002;2024-03-02T01:38:29;96594.97;;;10.04;100.00
36630;BME280;36256;42.154;23.002;2024-03-02T01:40:56;96589.84;;;10.03;100.00
36630;BME280;36256;42.154;23.002;2024-03-02T01:43:23;96596.72;;;10.11;100.00
36630;BME280;36256;42.154;23.002;2024-03-02T01:45:50;96596.69;;;10.02;100.00
36630;BME280;36256;42.154;23.002;2024-03-02T01:48:16;96588.09;;;10.05;100.00
36630;BME280;36256;42.154;23.002;2024-03-02T01:50:43;96593.56;;;10.09;100.00
36630;BME280;36256;42.154;23.002;2024-03-02T01:53:10;96593.25;;;10.07;100.00
36630;BME280;36256;42.154;23.002;2024-03-02T01:55:37;96589.53;;;10.01;100.00
36630;BME280;36256;42.154;23.002;2024-03-02T01:58:04;96589.19;;;10.08;100.00
36630;BME280;36256;42.154;23.002;2024-03-02T02:00:31;96598.56;;;10.23;100.00
36630;BME280;36256;42.154;23.002;2024-03-02T02:02:58;96600.59;;;10.22;100.00
36630;BME280;36256;42.154;23.002;2024-03-02T02:05:25;96597.66;;;10.26;100.00
36630;BME280;36256;42.154;23.002;2024-03-02T02:07:52;96594.84;;;10.26;100.00
36630;BME280;36256;42.154;23.002;2024-03-02T02:10:19;96601.06;;;10.30;100.00
36630;BME280;36256;42.154;23.002;2024-03-02T02:12:46;96588.13;;;10.33;100.00
36630;BME280;36256;42.154;23.002;2024-03-02T02:15:26;96590.47;;;10.34;100.00
36630;BME280;36256;42.154;23.002;2024-03-02T02:17:55;96591.09;;;10.38;100.00
36630;BME280;36256;42.154;23.002;2024-03-02T02:20:22;96581.56;;;10.36;100.00
36630;BME280;36256;42.154;23.002;2024-03-02T02:23:07;96587.00;;;10.39;100.00
36630;BME280;36256;42.154;23.002;2024-03-02T02:25:37;96594.66;;;10.30;100.00
36630;BME280;36256;42.154;23.002;2024-03-02T02:28:04;96600.28;;;10.30;100.00
36630;BME280;36256;42.154;23.002;2024-03-02T02:30:32;96601.06;;;10.30;100.00
36630;BME280;36256;42.154;23.002;2024-03-02T02:32:59;96599.34;;;10.33;100.00
36630;BME280;36256;42.154;23.002;2024-03-02T02:35:26;96595.47;;;10.30;100.00
36630;BME280;36256;42.154;23.002;2024-03-02T02:37:54;96609.47;;;10.30;100.00
36630;BME280;36256;42.154;23.002;2024-03-02T02:40:22;96604.19;;;10.32;100.00
36630;BME280;36256;42.154;23.002;2024-03-02T02:42:49;96605.44;;;10.22;100.00
36630;BME280;36256;42.154;23.002;2024-03-02T02:45:16;96611.06;;;10.22;100.00
36630;BME280;36256;42.154;23.002;2024-03-02T02:47:43;96611.66;;;10.17;100.00
36630;BME280;36256;42.154;23.002;2024-03-02T02:50:11;96608.06;;;10.25;100.00
36630;BME280;36256;42.154;23.002;2024-03-02T02:52:41;96608.69;;;10.20;100.00
36630;BME280;36256;42.154;23.002;2024-03-02T02:55:09;96607.94;;;10.20;100.00
36630;BME280;36256;42.154;23.002;2024-03-02T02:57:38;96602.31;;;10.20;100.00
36630;BME280;36256;42.154;23.002;2024-03-02T03:00:13;96599.53;;;10.11;100.00
36630;BME280;36256;42.154;23.002;2024-03-02T03:02:44;96597.16;;;10.00;100.00
36630;BME280;36256;42.154;23.002;2024-03-02T03:05:13;96601.22;;;9.90;100.00
36630;BME280;36256;42.154;23.002;2024-03-02T03:07:40;96600.44;;;9.90;100.00
36630;BME280;36256;42.154;23.002;2024-03-02T03:10:08;96598.25;;;9.94;100.00
36630;BME280;36256;42.154;23.002;2024-03-02T03:12:35;96592.47;;;9.97;100.00
36630;BME280;36256;42.154;23.002;2024-03-02T03:15:03;96606.66;;;9.94;100.00
36630;BME280;36256;42.154;23.002;2024-03-02T03:17:33;96601.97;;;9.91;100.00
36630;BME280;36256;42.154;23.002;2024-03-02T03:20:01;96593.88;;;9.75;100.00
36630;BME280;36256;42.154;23.002;2024-03-02T03:22:30;96590.75;;;9.64;100.00
36630;BME280;36256;42.154;23.002;2024-03-02T03:24:58;96592.28;;;9.74;100.00
36630;BME280;36256;42.154;23.002;2024-03-02T03:27:25;96599.00;;;9.85;100.00
36630;BME280;36256;42.154;23.002;2024-03-02T03:29:53;96597.16;;;9.91;100.00
36630;BME280;36256;42.154;23.002;2024-03-02T03:32:21;96597.28;;;9.97;100.00
36630;BME280;36256;42.154;23.002;2024-03-02T03:34:48;96596.84;;;9.98;100.00
36630;BME280;36256;42.154;23.002;2024-03-02T03:37:15;96595.13;;;10.01;100.00
36630;BME280;36256;42.154;23.002;2024-03-02T03:39:42;96600.75;;;9.92;100.00
36630;BME280;36256;42.154;23.002;2024-03-02T03:42:08;96608.66;;;9.84;100.00
36630;BME280;36256;42.154;23.002;2024-03-02T03:44:35;96601.66;;;9.89;100.00
36630;BME280;36256;42.154;23.002;2024-03-02T03:47:02;96602.59;;;9.95;100.00
36630;BME280;36256;42.154;23.002;2024-03-02T03:49:29;96582.03;;;9.89;100.00
36630;BME280;36256;42.154;23.002;2024-03-02T03:51:55;96595.75;;;10.05;100.00
36630;BME280;36256;42.154;23.002;2024-03-02T03:54:22;96598.88;;;10.07;100.00
36630;BME280;36256;42.154;23.002;2024-03-02T03:56:49;96596.50;;;10.05;100.00
36630;BME280;36256;42.154;23.002;2024-03-02T03:59:16;96607.59;;;10.09;100.00
36630;BME280;36256;42.154;23.002;2024-03-02T04:01:42;96602.91;;;10.06;100.00
36630;BME280;36256;42.154;23.002;2024-03-02T04:04:09;96598.88;;;10.07;100.00
36630;BME280;36256;42.154;23.002;2024-03-02T04:06:35;96599.53;;;10.11;100.00
36630;BME280;36256;42.154;23.002;2024-03-02T04:09:02;96606.31;;;10.10;100.00
36630;BME280;36256;42.154;23.002;2024-03-02T04:11:30;96596.81;;;10.07;100.00
36630;BME280;36256;42.154;23.002;2024-03-02T04:13:57;96605.13;;;10.11;100.00
36630;BME280;36256;42.154;23.002;2024-03-02T04:16:24;96603.72;;;10.15;100.00
36630;BME280;36256;42.154;23.002;2024-03-02T04:18:51;96605.13;;;10.20;100.00
36630;BME280;36256;42.154;23.002;2024-03-02T04:21:18;96578.16;;;10.04;100.00
36630;BME280;36256;42.154;23.002;2024-03-02T04:23:45;96597.66;;;10.17;100.00
36630;BME280;36256;42.154;23.002;2024-03-02T04:26:11;96601.38;;;10.23;100.00
36630;BME280;36256;42.154;23.002;2024-03-02T04:28:38;96605.75;;;10.24;100.00
36630;BME280;36256;42.154;23.002;2024-03-02T04:31:05;96607.59;;;10.18;100.00
36630;BME280;36256;42.154;23.002;2024-03-02T04:33:31;96607.16;;;10.19;100.00
36630;BME280;36256;42.154;23.002;2024-03-02T04:35:58;96603.88;;;10.21;100.00
36630;BME280;36256;42.154;23.002;2024-03-02T04:38:25;96606.69;;;10.21;100.00
36630;BME280;36256;42.154;23.002;2024-03-02T04:40:52;96606.66;;;10.12;100.00
36630;BME280;36256;42.154;23.002;2024-03-02T04:43:18;96607.59;;;10.09;100.00
36630;BME280;36256;42.154;23.002;2024-03-02T04:45:45;96602.91;;;10.06;100.00
36630;BME280;36256;42.154;23.002;2024-03-02T04:48:12;96618.19;;;10.05;100.00
36630;BME280;36256;42.154;23.002;2024-03-02T04:50:40;96609.91;;;10.01;100.00
36630;BME280;36256;42.154;23.002;2024-03-02T04:53:07;96614.13;;;10.06;100.00
36630;BME280;36256;42.154;23.002;2024-03-02T04:55:34;96614.91;;;10.06;100.00
36630;BME280;36256;42.154;23.002;2024-03-02T04:58:01;96611.31;;;9.97;100.00
36630;BME280;36256;42.154;23.002;2024-03-02T05:00:28;96613.34;;;9.87;100.00
36630;BME280;36256;42.154;23.002;2024-03-02T05:02:54;96613.19;;;9.82;100.00
36630;BME280;36256;42.154;23.002;2024-03-02T05:05:21;96616.75;;;9.82;100.00
36630;BME280;36256;42.154;23.002;2024-03-02T05:07:48;96612.56;;;9.78;100.00
36630;BME280;36256;42.154;23.002;2024-03-02T05:10:14;96622.81;;;9.72;100.00
36630;BME280;36256;42.154;23.002;2024-03-02T05:12:41;96608.50;;;9.61;100.00
36630;BME280;36256;42.154;23.002;2024-03-02T05:15:13;96624.38;;;9.73;100.00
36630;BME280;36256;42.154;23.002;2024-03-02T05:17:41;96623.59;;;9.72;100.00
36630;BME280;36256;42.154;23.002;2024-03-02T05:20:10;96620.00;;;9.63;100.00
36630;BME280;36256;42.154;23.002;2024-03-02T05:22:38;96630.59;;;9.59;100.00
36630;BME280;36256;42.154;23.002;2024-03-02T05:25:05;96634.13;;;9.59;100.00
36630;BME280;36256;42.154;23.002;2024-03-02T05:27:32;96629.31;;;9.60;100.00
36630;BME280;36256;42.154;23.002;2024-03-02T05:30:00;96631.84;;;9.67;100.00
36630;BME280;36256;42.154;23.002;2024-03-02T05:32:27;96638.50;;;9.60;100.00
36630;BME280;36256;42.154;23.002;2024-03-02T05:34:53;96646.59;;;9.58;100.00
36630;BME280;36256;42.154;23.002;2024-03-02T05:37:21;96645.97;;;9.54;100.00
36630;BME280;36256;42.154;23.002;2024-03-02T05:39:48;96652.69;;;9.57;100.00
36630;BME280;36256;42.154;23.002;2024-03-02T05:42:15;96639.88;;;9.46;100.00
36630;BME280;36256;42.154;23.002;2024-03-02T05:44:43;96639.84;;;9.37;100.00
36630;BME280;36256;42.154;23.002;2024-03-02T05:47:10;96658.72;;;9.46;100.00
36630;BME280;36256;42.154;23.002;2024-03-02T05:49:36;96659.50;;;9.56;100.00
36630;BME280;36256;42.154;23.002;2024-03-02T05:52:03;96661.38;;;9.68;100.00
36630;BME280;36256;42.154;23.002;2024-03-02T05:54:30;96649.28;;;9.71;100.00
36630;BME280;36256;42.154;23.002;2024-03-02T05:56:57;96661.72;;;9.79;100.00
36630;BME280;36256;42.154;23.002;2024-03-02T05:59:42;96664.84;;;9.81;100.00
36630;BME280;36256;42.154;23.002;2024-03-02T06:02:10;96669.84;;;9.95;100.00
36630;BME280;36256;42.154;23.002;2024-03-02T06:04:36;96667.22;;;10.00;100.00
36630;BME280;36256;42.154;23.002;2024-03-02T06:07:03;96669.09;;;9.94;100.00
36630;BME280;36256;42.154;23.002;2024-03-02T06:09:30;96670.50;;;9.99;100.00
36630;BME280;36256;42.154;23.002;2024-03-02T06:11:56;96674.53;;;9.98;100.00
36630;BME280;36256;42.154;23.002;2024-03-02T06:14:23;96666.88;;;9.89;100.00
36630;BME280;36256;42.154;23.002;2024-03-02T06:16:50;96668.31;;;9.94;100.00
36630;BME280;36256;42.154;23.002;2024-03-02T06:19:16;96675.44;;;9.95;100.00
36630;BME280;36256;42.154;23.002;2024-03-02T06:21:44;96665.03;;;9.95;100.00
36630;BME280;36256;42.154;23.002;2024-03-02T06:24:11;96662.53;;;9.97;100.00
36630;BME280;36256;42.154;23.002;2024-03-02T06:26:37;96672.50;;;9.98;100.00
36630;BME280;36256;42.154;23.002;2024-03-02T06:29:06;96674.38;;;10.01;100.00
36630;BME280;36256;42.154;23.002;2024-03-02T06:31:32;96676.72;;;10.03;100.00
36630;BME280;36256;42.154;23.002;2024-03-02T06:33:59;96669.56;;;10.02;100.00
36630;BME280;36256;42.154;23.002;2024-03-02T06:36:26;96679.53;;;10.03;100.00
36630;BME280;36256;42.154;23.002;2024-03-02T06:38:52;96674.84;;;10.00;100.00
36630;BME280;36256;42.154;23.002;2024-03-02T06:41:19;96684.81;;;10.01;100.00
36630;BME280;36256;42.154;23.002;2024-03-02T06:43:46;96678.28;;;10.04;100.00
36630;BME280;36256;42.154;23.002;2024-03-02T06:46:12;96685.75;;;10.07;100.00
36630;BME280;36256;42.154;23.002;2024-03-02T06:48:41;96696.38;;;10.12;100.00
36630;BME280;36256;42.154;23.002;2024-03-02T06:51:08;96690.03;;;9.72;100.00
36630;BME280;36256;42.154;23.002;2024-03-02T06:53:34;96682.84;;;9.62;100.00
36630;BME280;36256;42.154;23.002;2024-03-02T06:56:01;96692.97;;;9.59;100.00
36630;BME280;36256;42.154;23.002;2024-03-02T06:58:28;96683.13;;;9.55;100.00
36630;BME280;36256;42.154;23.002;2024-03-02T07:00:55;96685.03;;;9.58;100.00
36630;BME280;36256;42.154;23.002;2024-03-02T07:03:22;96689.09;;;9.57;100.00
36630;BME280;36256;42.154;23.002;2024-03-02T07:05:49;96684.44;;;9.72;100.00
36630;BME280;36256;42.154;23.002;2024-03-02T07:08:16;96701.44;;;9.86;100.00
36630;BME280;36256;42.154;23.002;2024-03-02T07:10:42;96697.88;;;9.95;100.00
36630;BME280;36256;42.154;23.002;2024-03-02T07:13:09;96689.78;;;9.97;100.00
36630;BME280;36256;42.154;23.002;2024-03-02T07:15:36;96695.25;;;10.00;100.00
36630;BME280;36256;42.154;23.002;2024-03-02T07:18:03;96692.59;;;10.06;100.00
36630;BME280;36256;42.154;23.002;2024-03-02T07:20:31;96696.06;;;10.19;100.00
36630;BME280;36256;42.154;23.002;2024-03-02T07:22:58;96692.66;;;10.24;100.00
36630;BME280;36256;42.154;23.002;2024-03-02T07:25:24;96700.13;;;10.27;100.00
36630;BME280;36256;42.154;23.002;2024-03-02T07:27:54;96695.44;;;10.33;100.00
36630;BME280;36256;42.154;23.002;2024-03-02T07:30:21;96698.72;;;10.22;100.00
36630;BME280;36256;42.154;23.002;2024-03-02T07:32:50;96707.00;;;10.26;100.00
36630;BME280;36256;42.154;23.002;2024-03-02T07:35:17;96700.75;;;10.22;100.00
36630;BME280;36256;42.154;23.002;2024-03-02T07:37:44;96705.13;;;10.32;100.00
36630;BME280;36256;42.154;23.002;2024-03-02T07:40:11;96697.94;;;10.31;100.00
36630;BME280;36256;42.154;23.002;2024-03-02T07:42:41;96699.34;;;10.36;100.00
36630;BME280;36256;42.154;23.002;2024-03-02T07:45:08;96714.78;;;10.49;100.00
36630;BME280;36256;42.154;23.002;2024-03-02T07:47:35;96719.44;;;10.52;100.00
36630;BME280;36256;42.154;23.002;2024-03-02T07:50:02;96714.63;;;10.53;100.00
36630;BME280;36256;42.154;23.002;2024-03-02T07:52:29;96712.59;;;10.71;100.00
36630;BME280;36256;42.154;23.002;2024-03-02T07:54:56;96724.59;;;10.81;100.00
36630;BME280;36256;42.154;23.002;2024-03-02T07:57:23;96708.38;;;10.76;100.00
36630;BME280;36256;42.154;23.002;2024-03-02T07:59:50;96713.19;;;10.84;100.00
36630;BME280;36256;42.154;23.002;2024-03-02T08:02:17;96716.63;;;10.97;100.00
36630;BME280;36256;42.154;23.002;2024-03-02T08:04:44;96724.25;;;10.88;100.00
36630;BME280;36256;42.154;23.002;2024-03-02T08:07:12;96721.31;;;10.82;100.00
36630;BME280;36256;42.154;23.002;2024-03-02T08:09:39;96720.84;;;10.84;100.00
36630;BME280;36256;42.154;23.002;2024-03-02T08:12:06;96728.47;;;11.01;100.00
36630;BME280;36256;42.154;23.002;2024-03-02T08:14:35;96719.22;;;11.19;100.00
36630;BME280;36256;42.154;23.002;2024-03-02T08:17:02;96728.81;;;11.45;100.00
36630;BME280;36256;42.154;23.002;2024-03-02T08:19:29;96729.56;;;11.55;100.00
36630;BME280;36256;42.154;23.002;2024-03-02T08:21:56;96735.69;;;11.44;100.00
36630;BME280;36256;42.154;23.002;2024-03-02T08:24:22;96733.31;;;11.52;100.00
36630;BME280;36256;42.154;23.002;2024-03-02T08:26:49;96743.00;;;11.51;100.00
36630;BME280;36256;42.154;23.002;2024-03-02T08:29:16;96734.81;;;11.62;100.00
36630;BME280;36256;42.154;23.002;2024-03-02T08:31:43;96732.50;;;11.69;100.00
36630;BME280;36256;42.154;23.002;2024-03-02T08:34:10;96730.78;;;11.72;100.00
36630;BME280;36256;42.154;23.002;2024-03-02T08:36:37;96727.63;;;11.70;100.00
36630;BME280;36256;42.154;23.002;2024-03-02T08:39:04;96736.03;;;11.79;100.00
36630;BME280;36256;42.154;23.002;2024-03-02T08:41:34;96734.94;;;11.76;100.00
36630;BME280;36256;42.154;23.002;2024-03-02T08:44:00;96741.22;;;11.71;100.00
36630;BME280;36256;42.154;23.002;2024-03-02T08:46:27;96732.31;;;11.73;100.00
36630;BME280;36256;42.154;23.002;2024-03-02T08:48:54;96747.63;;;11.72;100.00
36630;BME280;36256;42.154;23.002;2024-03-02T08:51:21;96742.94;;;11.60;100.00
36630;BME280;36256;42.154;23.002;2024-03-02T08:53:47;96737.09;;;11.49;100.00
36630;BME280;36256;42.154;23.002;2024-03-02T08:56:14;96737.63;;;11.62;100.00
36630;BME280;36256;42.154;23.002;2024-03-02T08:58:43;96723.66;;;11.53;100.00
36630;BME280;36256;42.154;23.002;2024-03-02T09:01:10;96741.06;;;11.66;100.00
36630;BME280;36256;42.154;23.002;2024-03-02T09:03:37;96742.94;;;11.69;100.00
36630;BME280;36256;42.154;23.002;2024-03-02T09:06:04;96753.41;;;11.68;100.00
36630;BME280;36256;42.154;23.002;2024-03-02T09:08:31;96743.88;;;11.66;100.00
36630;BME280;36256;42.154;23.002;2024-03-02T09:10:58;96752.94;;;11.61;100.00
36630;BME280;36256;42.154;23.002;2024-03-02T09:13:25;96747.81;;;11.59;100.00
36630;BME280;36256;42.154;23.002;2024-03-02T09:15:51;96763.88;;;11.68;100.00
36630;BME280;36256;42.154;23.002;2024-03-02T09:18:18;96755.09;;;11.66;100.00
36630;BME280;36256;42.154;23.002;2024-03-02T09:20:45;96757.31;;;11.71;100.00
36630;BME280;36256;42.154;23.002;2024-03-02T09:23:12;96752.91;;;11.79;100.00
36630;BME280;36256;42.154;23.002;2024-03-02T09:25:39;96757.28;;;11.80;100.00
36630;BME280;36256;42.154;23.002;2024-03-02T09:28:05;96753.38;;;11.77;100.00
36630;BME280;36256;42.154;23.002;2024-03-02T09:30:33;96758.19;;;11.86;100.00
36630;BME280;36256;42.154;23.002;2024-03-02T09:33:00;96733.88;;;11.74;100.00
36630;BME280;36256;42.154;23.002;2024-03-02T09:35:29;96750.06;;;11.88;100.00
36630;BME280;36256;42.154;23.002;2024-03-02T09:37:56;96753.13;;;11.99;100.00
36630;BME280;36256;42.154;23.002;2024-03-02T09:40:23;96752.81;;;11.97;100.00
36630;BME280;36256;42.154;23.002;2024-03-02T09:42:50;96745.34;;;11.94;100.00
36630;BME280;36256;42.154;23.002;2024-03-02T09:45:24;96745.97;;;11.89;100.00
36630;BME280;36256;42.154;23.002;2024-03-02T09:47:51;96746.41;;;11.97;100.00
36630;BME280;36256;42.154;23.002;2024-03-02T09:50:18;96737.97;;;11.97;100.00
36630;BME280;36256;42.154;23.002;2024-03-02T09:52:48;96736.56;;;12.01;100.00
36630;BME280;36256;42.154;23.002;2024-03-02T09:55:15;96738.09;;;12.02;100.00
36630;BME280;36256;42.154;23.002;2024-03-02T09:57:42;96743.13;;;11.98;100.00
36630;BME280;36256;42.154;23.002;2024-03-02T10:00:09;96741.69;;;12.03;100.00
36630;BME280;36256;42.154;23.002;2024-03-02T10:02:41;96722.19;;;11.99;100.00
36630;BME280;36256;42.154;23.002;2024-03-02T10:05:08;96734.28;;;12.14;100.00
36630;BME280;36256;42.154;23.002;2024-03-02T10:07:35;96732.72;;;12.13;100.00
36630;BME280;36256;42.154;23.002;2024-03-02T10:10:13;96736.44;;;12.19;100.00
36630;BME280;36256;42.154;23.002;2024-03-02T10:12:39;96730.56;;;12.32;100.00
36630;BME280;36256;42.154;23.002;2024-03-02T10:15:06;96733.22;;;12.35;100.00
36630;BME280;36256;42.154;23.002;2024-03-02T10:17:34;96741.28;;;12.42;100.00
36630;BME280;36256;42.154;23.002;2024-03-02T10:20:21;96731.50;;;12.52;100.00
36630;BME280;36256;42.154;23.002;2024-03-02T10:22:50;96711.47;;;12.36;100.00
36630;BME280;36256;42.154;23.002;2024-03-02T10:25:32;96712.38;;;12.42;100.00
36630;BME280;36256;42.154;23.002;2024-03-02T10:28:02;96729.63;;;12.58;100.00
36630;BME280;36256;42.154;23.002;2024-03-02T10:30:35;96729.00;;;12.54;100.00
36630;BME280;36256;42.154;23.002;2024-03-02T10:33:03;96726.69;;;12.68;100.00
36630;BME280;36256;42.154;23.002;2024-03-02T10:35:32;96726.56;;;12.86;100.00
36630;BME280;36256;42.154;23.002;2024-03-02T10:37:59;96732.00;;;12.89;100.00
36630;BME280;36256;42.154;23.002;2024-03-02T10:40:26;96730.81;;;12.81;100.00
36630;BME280;36256;42.154;23.002;2024-03-02T10:42:54;96725.41;;;12.92;100.00
36630;BME280;36256;42.154;23.002;2024-03-02T10:45:21;96719.31;;;13.08;100.00
36630;BME280;36256;42.154;23.002;2024-03-02T10:47:51;96717.59;;;13.40;97.56
36630;BME280;36256;42.154;23.002;2024-03-02T10:50:18;96720.50;;;13.31;95.53
36630;BME280;36256;42.154;23.002;2024-03-02T10:52:45;96720.63;;;13.22;92.44
36630;BME280;36256;42.154;23.002;2024-03-02T10:55:12;96711.56;;;13.32;91.94
36630;BME280;36256;42.154;23.002;2024-03-02T10:57:43;96705.44;;;13.49;91.87
36630;BME280;36256;42.154;23.002;2024-03-02T11:00:12;96705.97;;;13.67;92.71
36630;BME280;36256;42.154;23.002;2024-03-02T11:02:50;96708.88;;;13.73;89.77
36630;BME280;36256;42.154;23.002;2024-03-02T11:05:26;96708.28;;;13.83;90.82
36630;BME280;36256;42.154;23.002;2024-03-02T11:08:13;96706.06;;;14.07;90.88
36630;BME280;36256;42.154;23.002;2024-03-02T11:13:14;96695.91;;;14.15;86.61
36630;BME280;36256;42.154;23.002;2024-03-02T11:15:43;96691.41;;;14.03;85.80
36630;BME280;36256;42.154;23.002;2024-03-02T11:18:11;96690.94;;;13.90;88.42
36630;BME280;36256;42.154;23.002;2024-03-02T11:20:39;96667.88;;;13.72;89.22
36630;BME280;36256;42.154;23.002;2024-03-02T11:23:08;96690.38;;;13.86;88.78
36630;BME280;36256;42.154;23.002;2024-03-02T11:25:36;96678.47;;;13.97;89.38
36630;BME280;36256;42.154;23.002;2024-03-02T11:28:04;96689.72;;;14.11;89.80
36630;BME280;36256;42.154;23.002;2024-03-02T11:33:06;96690.72;;;14.08;89.78
36630;BME280;36256;42.154;23.002;2024-03-02T11:35:41;96685.31;;;13.90;87.50
36630;BME280;36256;42.154;23.002;2024-03-02T11:38:15;96682.03;;;13.77;88.44
36630;BME280;36256;42.154;23.002;2024-03-02T11:40:42;96678.94;;;13.75;89.20
36630;BME280;36256;42.154;23.002;2024-03-02T11:43:10;96673.56;;;13.77;89.80
36630;BME280;36256;42.154;23.002;2024-03-02T11:45:38;96674.03;;;13.90;90.29
36630;BME280;36256;42.154;23.002;2024-03-02T11:48:08;96670.81;;;13.97;90.64
36630;BME280;36256;42.154;23.002;2024-03-02T11:50:47;96672.22;;;14.07;87.52
36630;BME280;36256;42.154;23.002;2024-03-02T11:53:14;96671.25;;;14.10;87.77
36630;BME280;36256;42.154;23.002;2024-03-02T11:55:41;96672.22;;;14.07;85.84
36630;BME280;36256;42.154;23.002;2024-03-02T11:58:10;96678.09;;;14.04;86.58
36630;BME280;36256;42.154;23.002;2024-03-02T12:00:36;96676.53;;;14.23;90.19
36630;BME280;36256;42.154;23.002;2024-03-02T12:03:08;96666.06;;;14.44;87.22
36630;BME280;36256;42.154;23.002;2024-03-02T12:05:36;96672.19;;;14.42;85.43
36630;BME280;36256;42.154;23.002;2024-03-02T12:08:04;96669.16;;;14.46;83.84
36630;BME280;36256;42.154;23.002;2024-03-02T12:10:34;96661.31;;;14.55;81.13
36630;BME280;36256;42.154;23.002;2024-03-02T12:13:05;96660.50;;;14.75;80.92
36630;BME280;36256;42.154;23.002;2024-03-02T12:15:38;96655.69;;;14.81;78.48
36630;BME280;36256;42.154;23.002;2024-03-02T12:18:06;96649.47;;;14.77;78.31
36630;BME280;36256;42.154;23.002;2024-03-02T12:20:34;96658.22;;;14.79;78.79
36630;BME280;36256;42.154;23.002;2024-03-02T12:23:02;96655.97;;;14.83;79.40
36630;BME280;36256;42.154;23.002;2024-03-02T12:25:31;96656.59;;;14.92;80.26
36630;BME280;36256;42.154;23.002;2024-03-02T12:28:00;96635.34;;;14.77;78.12
36630;BME280;36256;42.154;23.002;2024-03-02T12:30:35;96644.19;;;14.84;79.19
36630;BME280;36256;42.154;23.002;2024-03-02T12:33:02;96634.97;;;14.89;80.19
36630;BME280;36256;42.154;23.002;2024-03-02T12:35:29;96647.25;;;15.12;80.55
36630;BME280;36256;42.154;23.002;2024-03-02T12:37:56;96648.72;;;15.02;77.37
36630;BME280;36256;42.154;23.002;2024-03-02T12:40:23;96638.53;;;14.84;75.22
36630;BME280;36256;42.154;23.002;2024-03-02T12:42:50;96642.03;;;14.54;76.15
36630;BME280;36256;42.154;23.002;2024-03-02T12:45:18;96630.34;;;14.41;77.18
36630;BME280;36256;42.154;23.002;2024-03-02T12:47:51;96645.50;;;14.63;79.49
36630;BME280;36256;42.154;23.002;2024-03-02T12:50:18;96642.28;;;14.76;80.04
36630;BME280;36256;42.154;23.002;2024-03-02T12:52:53;96647.22;;;14.81;78.29